Airport Name : Pyongyang Intl

Other Name : Sunan

ICAO : ZKPY

IATA : FNJ

FAA :

Latitude : 39.224061

Longitude : 125.67015

Country : North Korea

Local Date and Time : 16 Nov 2019 10:55

 

TAF (Terminal Aerodrome Forecast)

TAF ZKPY 152040Z 1600/1624 35005MPS CAVOK TX11/1606Z TN00/1621Z

 

METAR (METeorological Aerodrome Report)